Airfield :
LOGIN :

Register | Disclaimer

   EN    FR    IT 

 










Legend :    VFR   Marginal VFR   IFR   Intensive IFR   Very Intensive IFR
Visi :
Ceiling :
>= 8 km
>= 3000ft
5 to 8 km
1000 to 3000 ft
1500m to 5 km
500 to 1000 ft
800 to 1500m
200 to 500 ft
< 800m
< 200 ft
Symbols :   Thunderstorms  Fog  Heavy snow  Heavy precipitations  Wind > 20 kt
SIGMETs :     Misc.  Thunderstorms  Icing  Turbulence  Mountain Waves  Volcanic Ashes






- Airport Elevation : 68 ft


ESCM - Uppsala

CURRENT METAR :
  • 291250Z 31005KT 9999 BKN031 22/18 Q1018

EXPIRED METARs :
  • 291220Z 30005KT 9999 SCT032 BKN040 22/18 Q1018
  • 291150Z 32005KT 290V360 9999 SCT039 BKN130 22/17 Q1018
  • 291120Z 34006KT 9999 SCT040 22/17 Q1018
  • 291050Z 35006KT 320V040 CAVOK 22/18 Q1018
  • 291020Z 36005KT 310V060 9999 FEW049 SCT210 22/18 Q1018

TAF TAF ESCM
Valid from the 29 at 12:00 until the 29 at 14:00 UTC


291130Z 2912/2914 30005KT 9999 SCT040
PROB40 2912/2914 5000 SHRA BKN012 BKN030CB RMK MIL



MET'MAP, your aeronautical weather chart ! - Copyright ORBIFLY December 2007 - Disclaimer

ORBIFLY MET'MAP TEAM :

Programming & Development : Alexandra Zaïnal
Original concept : Baudouin d'Aumeries
Technical & hardware support : Manuel Goepfert
Assistance : Marc-Olivier Méhu




SOURCES & CREDITS :

   NOAA